createdAt,value
2023-05-04T00:00:29.676Z,8.70
2023-05-04T00:02:59.205Z,3.87
2023-05-04T00:05:27.449Z,5.80
2023-05-04T00:07:55.739Z,5.13
2023-05-04T00:10:23.871Z,7.30
2023-05-04T00:12:52.334Z,4.90
2023-05-04T00:15:20.489Z,3.30
2023-05-04T00:17:48.592Z,7.33
2023-05-04T00:20:18.902Z,4.30
2023-05-04T00:22:47.056Z,4.17
2023-05-04T00:25:15.406Z,7.10
2023-05-04T00:27:43.535Z,5.93
2023-05-04T00:30:13.067Z,7.90
2023-05-04T00:32:41.191Z,5.00
2023-05-04T00:35:10.288Z,6.27
2023-05-04T00:37:39.750Z,4.47
2023-05-04T00:40:09.770Z,4.70
2023-05-04T00:42:37.849Z,5.87
2023-05-04T00:45:07.124Z,4.57
2023-05-04T00:47:35.235Z,6.10
2023-05-04T00:50:03.943Z,4.60
2023-05-04T00:52:32.779Z,4.20
2023-05-04T00:55:03.417Z,4.57
2023-05-04T00:57:32.022Z,4.80
2023-05-04T01:00:00.229Z,9.03
2023-05-04T01:02:28.387Z,4.40
2023-05-04T01:04:56.576Z,4.53
2023-05-04T01:07:31.040Z,4.87
2023-05-04T01:10:05.416Z,5.23
2023-05-04T01:12:38.971Z,4.83
2023-05-04T01:15:09.214Z,4.53
2023-05-04T01:17:37.523Z,5.30
2023-05-04T01:20:07.376Z,4.23
2023-05-04T01:22:37.961Z,6.83
2023-05-04T01:25:07.816Z,7.47
2023-05-04T01:27:41.355Z,5.80
2023-05-04T01:30:15.904Z,5.47
2023-05-04T01:32:46.883Z,4.40
2023-05-04T01:35:16.526Z,4.47
2023-05-04T01:37:46.094Z,4.03
2023-05-04T01:40:14.275Z,6.60
2023-05-04T01:42:42.336Z,4.57
2023-05-04T01:45:11.807Z,5.90
2023-05-04T01:47:39.975Z,4.73
2023-05-04T01:50:08.736Z,5.43
2023-05-04T01:52:36.977Z,7.47
2023-05-04T01:55:07.241Z,4.97
2023-05-04T01:57:35.351Z,6.03
2023-05-04T02:00:04.901Z,6.90
2023-05-04T02:02:43.648Z,5.13
2023-05-04T02:05:15.264Z,8.33
2023-05-04T02:07:43.843Z,4.50
2023-05-04T02:10:13.670Z,4.60
2023-05-04T02:12:43.199Z,5.70
2023-05-04T02:15:12.293Z,4.13
2023-05-04T02:17:40.522Z,5.87
2023-05-04T02:20:10.205Z,5.43
2023-05-04T02:22:38.328Z,6.57
2023-05-04T02:25:07.622Z,5.17
2023-05-04T02:27:37.148Z,4.40
2023-05-04T02:30:06.529Z,8.53
2023-05-04T02:32:35.030Z,4.97
2023-05-04T02:35:03.331Z,6.97
2023-05-04T02:37:31.467Z,5.73
2023-05-04T02:39:59.663Z,5.67
2023-05-04T02:42:28.523Z,4.93
2023-05-04T02:44:59.320Z,5.77
2023-05-04T02:47:27.528Z,7.00
2023-05-04T02:49:55.673Z,6.10
2023-05-04T02:52:23.827Z,7.50
2023-05-04T02:54:53.186Z,5.37
2023-05-04T02:57:21.602Z,6.60
2023-05-04T02:59:49.784Z,6.30
2023-05-04T03:02:19.342Z,10.13
2023-05-04T03:04:47.559Z,7.47
2023-05-04T03:07:15.757Z,7.27
2023-05-04T03:09:46.007Z,10.80
2023-05-04T03:12:15.656Z,6.43
2023-05-04T03:14:44.202Z,7.07
2023-05-04T03:17:12.668Z,7.20
2023-05-04T03:19:43.803Z,6.63
2023-05-04T03:22:13.057Z,5.63
2023-05-04T03:24:41.241Z,7.20
2023-05-04T03:27:10.103Z,5.80
2023-05-04T03:29:39.537Z,7.50
2023-05-04T03:32:08.137Z,5.90
2023-05-04T03:34:37.177Z,12.40
2023-05-04T03:37:09.114Z,7.30
2023-05-04T03:39:37.325Z,15.47
2023-05-04T03:42:05.660Z,9.30
2023-05-04T03:44:33.874Z,8.23
2023-05-04T03:47:01.940Z,6.83
2023-05-04T03:49:31.063Z,6.67
2023-05-04T03:51:59.291Z,7.30
2023-05-04T03:54:29.073Z,6.50
2023-05-04T03:56:57.509Z,8.23
2023-05-04T03:59:26.323Z,6.97
2023-05-04T04:01:55.038Z,7.93
2023-05-04T04:04:23.392Z,15.60
2023-05-04T04:06:52.528Z,8.77
2023-05-04T04:09:20.953Z,6.80
2023-05-04T04:11:50.465Z,8.50
2023-05-04T04:14:20.188Z,6.23
2023-05-04T04:16:48.331Z,11.03
2023-05-04T04:19:16.413Z,7.93
2023-05-04T04:21:44.556Z,12.30
2023-05-04T04:24:12.612Z,7.93
2023-05-04T04:26:40.718Z,6.37
2023-05-04T04:29:10.283Z,9.97
2023-05-04T04:31:40.454Z,9.07
2023-05-04T04:34:08.705Z,8.50
2023-05-04T04:36:36.955Z,9.80
2023-05-04T04:39:06.083Z,9.60
2023-05-04T04:41:34.227Z,7.20
2023-05-04T04:44:02.383Z,7.80
2023-05-04T04:46:31.953Z,6.30
2023-05-04T04:49:00.112Z,7.40
2023-05-04T04:51:28.237Z,11.47
2023-05-04T04:53:56.700Z,7.30
2023-05-04T04:56:24.796Z,10.53
2023-05-04T04:58:53.407Z,13.40
2023-05-04T05:01:22.000Z,12.00
2023-05-04T05:03:51.619Z,12.57
2023-05-04T05:06:20.759Z,11.67
2023-05-04T05:08:48.994Z,8.47
2023-05-04T05:11:17.261Z,8.40
2023-05-04T05:13:45.525Z,8.97
2023-05-04T05:16:13.634Z,8.40
2023-05-04T05:18:42.350Z,9.30
2023-05-04T05:21:12.521Z,13.93
2023-05-04T05:23:40.645Z,5.90
2023-05-04T05:26:08.994Z,7.67
2023-05-04T05:28:37.170Z,8.30
2023-05-04T05:31:05.394Z,7.40
2023-05-04T05:33:33.796Z,8.03
2023-05-04T05:36:01.969Z,10.17
2023-05-04T05:38:31.501Z,10.10
2023-05-04T05:40:59.632Z,11.40
2023-05-04T05:43:27.774Z,11.40
2023-05-04T05:45:56.282Z,11.63
2023-05-04T05:48:24.771Z,13.20
2023-05-04T05:50:52.893Z,13.60
2023-05-04T05:53:21.071Z,15.67
2023-05-04T05:55:50.646Z,13.13
2023-05-04T05:58:18.777Z,11.07
2023-05-04T06:00:48.118Z,11.30
2023-05-04T06:03:16.206Z,12.97
2023-05-04T06:05:44.428Z,14.40
2023-05-04T06:08:12.708Z,12.80
2023-05-04T06:10:40.923Z,14.70
2023-05-04T06:13:10.587Z,15.57
2023-05-04T06:15:38.705Z,11.07
2023-05-04T06:18:07.018Z,14.80
2023-05-04T06:20:35.154Z,15.93
2023-05-04T06:23:03.260Z,9.17
2023-05-04T06:25:32.177Z,13.73
2023-05-04T06:28:00.275Z,14.73
2023-05-04T06:30:29.854Z,12.77
2023-05-04T06:32:58.096Z,19.60
2023-05-04T06:35:26.268Z,12.63
2023-05-04T06:37:54.454Z,14.57
2023-05-04T06:40:22.528Z,12.00
2023-05-04T06:42:51.022Z,14.40
2023-05-04T06:45:19.360Z,15.80
2023-05-04T06:47:48.993Z,16.77
2023-05-04T06:50:17.607Z,17.77
2023-05-04T06:52:46.376Z,14.40
2023-05-04T06:55:14.911Z,16.70
2023-05-04T06:57:43.030Z,18.63
2023-05-04T07:00:12.749Z,24.40
2023-05-04T07:02:40.952Z,15.70
2023-05-04T07:05:10.933Z,16.97
2023-05-04T07:07:39.622Z,14.90
2023-05-04T07:10:08.692Z,13.90
2023-05-04T07:12:36.946Z,13.33
2023-05-04T07:15:06.750Z,13.63
2023-05-04T07:17:34.970Z,17.23
2023-05-04T07:20:04.740Z,18.47
2023-05-04T07:22:34.915Z,15.80
2023-05-04T07:25:03.096Z,16.60
2023-05-04T07:27:31.340Z,18.80
2023-05-04T07:29:59.496Z,19.43
2023-05-04T07:32:28.032Z,15.67
2023-05-04T07:34:56.402Z,15.67
2023-05-04T07:37:24.602Z,14.80
2023-05-04T07:39:54.369Z,19.60
2023-05-04T07:42:23.600Z,14.73
2023-05-04T07:44:53.409Z,18.27
2023-05-04T07:47:22.498Z,15.20
2023-05-04T07:49:51.333Z,14.97
2023-05-04T07:52:20.147Z,15.27
2023-05-04T07:54:48.223Z,17.37
2023-05-04T07:57:17.718Z,20.33
2023-05-04T07:59:45.907Z,12.77
2023-05-04T08:02:14.113Z,18.03
2023-05-04T08:04:42.188Z,17.13
2023-05-04T08:07:10.580Z,13.90
2023-05-04T08:09:38.679Z,14.83
2023-05-04T08:12:07.721Z,14.53
2023-05-04T08:14:38.430Z,14.63
2023-05-04T08:17:06.603Z,14.00
2023-05-04T08:19:35.057Z,12.97
2023-05-04T08:22:04.005Z,14.33
2023-05-04T08:24:32.195Z,15.40
2023-05-04T08:27:08.054Z,15.93
2023-05-04T08:29:38.594Z,15.20
2023-05-04T08:32:07.552Z,17.70
2023-05-04T08:34:36.731Z,18.90
2023-05-04T08:37:05.110Z,14.93
2023-05-04T08:39:33.198Z,15.37
2023-05-04T08:42:02.260Z,12.60
2023-05-04T08:44:30.849Z,13.17
2023-05-04T08:47:00.383Z,11.10
2023-05-04T08:49:29.184Z,15.77
2023-05-04T08:51:58.637Z,14.10
2023-05-04T08:54:28.224Z,13.07
2023-05-04T08:56:57.075Z,13.07
2023-05-04T08:59:28.570Z,11.17
2023-05-04T09:02:00.314Z,16.50
2023-05-04T09:04:29.762Z,12.40
2023-05-04T09:06:58.648Z,13.10
2023-05-04T09:09:29.605Z,17.70
2023-05-04T09:11:59.366Z,14.77
2023-05-04T09:14:33.707Z,19.33
2023-05-04T09:17:04.057Z,10.47
2023-05-04T09:19:34.759Z,8.03
2023-05-04T09:22:03.582Z,9.97
2023-05-04T09:24:31.981Z,10.53
2023-05-04T09:27:11.075Z,10.40
2023-05-04T09:29:40.758Z,11.57
2023-05-04T09:32:15.172Z,13.17
2023-05-04T09:34:50.720Z,12.00
2023-05-04T09:37:20.851Z,14.83
2023-05-04T09:39:56.322Z,9.60
2023-05-04T09:42:24.931Z,12.03
2023-05-04T09:45:03.986Z,10.13
2023-05-04T09:47:35.276Z,9.00
2023-05-04T09:50:20.178Z,9.40
2023-05-04T09:52:51.065Z,9.45
2023-05-04T09:55:21.142Z,10.93
2023-05-04T09:57:51.204Z,13.93
2023-05-04T10:00:20.328Z,13.40
2023-05-04T10:02:50.834Z,13.20
2023-05-04T10:05:21.809Z,10.70
2023-05-04T10:07:50.824Z,9.13
2023-05-04T10:10:19.149Z,11.20
2023-05-04T10:12:47.347Z,10.00
2023-05-04T10:15:17.010Z,14.60
2023-05-04T10:18:03.491Z,12.80
2023-05-04T10:21:00.700Z,10.70
2023-05-04T10:23:47.016Z,15.73
2023-05-04T10:26:32.070Z,16.93
2023-05-04T10:29:13.751Z,12.70
2023-05-04T10:31:43.007Z,10.37
2023-05-04T10:34:13.056Z,11.97
2023-05-04T10:36:42.352Z,14.23
2023-05-04T10:39:20.560Z,14.40
2023-05-04T10:42:02.848Z,15.60
2023-05-04T10:44:32.617Z,13.77
2023-05-04T10:47:02.694Z,13.10
2023-05-04T10:49:32.874Z,18.70
2023-05-04T10:52:12.611Z,12.57
2023-05-04T10:54:42.087Z,13.40
2023-05-04T10:57:13.757Z,12.37
2023-05-04T10:59:42.429Z,12.00
2023-05-04T11:02:10.677Z,13.40
2023-05-04T11:04:40.337Z,9.60
2023-05-04T11:07:09.010Z,10.30
2023-05-04T11:09:38.778Z,9.90
2023-05-04T11:12:10.449Z,10.93
2023-05-04T11:14:42.595Z,9.50
2023-05-04T11:17:27.436Z,8.93
2023-05-04T11:19:57.977Z,11.43
2023-05-04T11:22:26.236Z,10.17
2023-05-04T11:24:56.122Z,8.13
2023-05-04T11:27:26.080Z,9.57
2023-05-04T11:29:58.447Z,7.97
2023-05-04T11:32:37.975Z,6.73
2023-05-04T11:35:10.588Z,10.30
2023-05-04T11:37:42.930Z,7.50
2023-05-04T11:40:14.278Z,9.30
2023-05-04T11:42:43.753Z,7.80
2023-05-04T11:45:17.905Z,13.50
2023-05-04T11:47:47.156Z,12.10
2023-05-04T11:50:19.011Z,9.87
2023-05-04T11:52:48.023Z,7.37
2023-05-04T11:55:27.482Z,7.63
2023-05-04T11:57:59.616Z,7.27
2023-05-04T12:00:39.912Z,6.00
2023-05-04T12:03:09.402Z,5.87
2023-05-04T12:05:39.003Z,7.93
2023-05-04T12:08:08.856Z,5.00
2023-05-04T12:10:37.136Z,7.70
2023-05-04T12:13:15.935Z,6.20
2023-05-04T12:15:44.415Z,8.77
2023-05-04T12:18:23.106Z,5.77
2023-05-04T12:20:52.859Z,6.80
2023-05-04T12:23:21.000Z,5.00
2023-05-04T12:25:57.803Z,5.83
2023-05-04T12:28:27.801Z,6.50
2023-05-04T12:30:55.970Z,4.27
2023-05-04T12:33:25.364Z,4.30
2023-05-04T12:35:56.197Z,6.00
2023-05-04T12:38:25.670Z,4.10
2023-05-04T12:40:54.301Z,5.60
2023-05-04T12:43:23.073Z,7.17
2023-05-04T12:45:53.570Z,6.67
2023-05-04T12:48:22.331Z,6.20
2023-05-04T12:50:52.139Z,4.57
2023-05-04T12:53:22.339Z,4.73
2023-05-04T12:55:50.544Z,4.47
2023-05-04T12:58:18.682Z,7.67
2023-05-04T13:00:47.085Z,8.10
2023-05-04T13:03:17.514Z,5.60
2023-05-04T13:05:46.422Z,4.80
2023-05-04T13:08:14.540Z,6.90
2023-05-04T13:10:46.144Z,6.67
2023-05-04T13:13:16.225Z,4.60
2023-05-04T13:15:44.657Z,6.43
2023-05-04T13:18:13.621Z,5.07
2023-05-04T13:20:41.714Z,5.90
2023-05-04T13:23:09.774Z,3.60
2023-05-04T13:25:37.940Z,8.87
2023-05-04T13:28:07.463Z,5.47
2023-05-04T13:30:35.643Z,7.10
2023-05-04T13:33:13.344Z,5.13
2023-05-04T13:35:49.547Z,7.67
2023-05-04T13:38:17.885Z,4.60
2023-05-04T13:40:46.036Z,6.90
2023-05-04T13:43:15.516Z,6.03
2023-05-04T13:45:43.647Z,6.10
2023-05-04T13:48:11.971Z,7.63
2023-05-04T13:50:40.132Z,4.03
2023-05-04T13:53:08.266Z,9.17
2023-05-04T13:55:36.321Z,4.17
2023-05-04T13:58:05.139Z,8.60
2023-05-04T14:00:34.965Z,4.07
2023-05-04T14:03:03.333Z,4.60
2023-05-04T14:05:32.110Z,4.57
2023-05-04T14:08:00.267Z,5.50
2023-05-04T14:10:28.569Z,4.70
2023-05-04T14:12:56.769Z,6.80
2023-05-04T14:15:26.891Z,4.90
2023-05-04T14:17:56.640Z,4.90
2023-05-04T14:20:24.797Z,4.80
2023-05-04T14:22:52.943Z,3.90
2023-05-04T14:25:22.363Z,3.50
2023-05-04T14:27:50.518Z,5.57
2023-05-04T14:30:18.690Z,10.53
2023-05-04T14:32:47.093Z,4.60
2023-05-04T14:35:17.448Z,3.40
2023-05-04T14:37:49.283Z,3.97
2023-05-04T14:40:17.723Z,4.77
2023-05-04T14:42:45.870Z,4.83
2023-05-04T14:45:14.222Z,5.03
2023-05-04T14:47:43.161Z,4.47
2023-05-04T14:50:12.299Z,7.20
2023-05-04T14:52:41.886Z,3.87
2023-05-04T14:55:10.914Z,8.13
2023-05-04T14:57:39.116Z,5.67
2023-05-04T15:00:10.290Z,9.87
2023-05-04T15:02:39.211Z,4.00
2023-05-04T15:05:10.239Z,7.03
2023-05-04T15:07:38.694Z,4.47
2023-05-04T15:10:10.607Z,4.57
2023-05-04T15:12:39.586Z,3.83
2023-05-04T15:15:08.964Z,6.47
2023-05-04T15:17:37.178Z,7.70
2023-05-04T15:20:06.350Z,3.97
2023-05-04T15:22:34.872Z,4.20
2023-05-04T15:25:04.061Z,5.87
2023-05-04T15:27:33.573Z,7.03
2023-05-04T15:30:01.769Z,10.30
2023-05-04T15:32:29.873Z,4.40
2023-05-04T15:35:05.374Z,6.77
2023-05-04T15:37:34.601Z,6.07
2023-05-04T15:40:04.573Z,6.57
2023-05-04T15:42:34.440Z,4.33
2023-05-04T15:45:03.065Z,4.13
2023-05-04T15:47:32.024Z,10.77
2023-05-04T15:50:00.430Z,5.30
2023-05-04T15:52:28.515Z,3.87
2023-05-04T15:54:57.240Z,3.30
2023-05-04T15:57:25.401Z,6.40
2023-05-04T15:59:55.840Z,4.03
2023-05-04T16:02:24.394Z,11.63
2023-05-04T16:04:53.600Z,6.80
2023-05-04T16:07:21.942Z,4.10
2023-05-04T16:09:50.258Z,4.20
2023-05-04T16:12:20.464Z,4.90
2023-05-04T16:14:49.005Z,6.43
2023-05-04T16:17:18.689Z,3.80
2023-05-04T16:19:46.988Z,3.57
2023-05-04T16:22:15.265Z,6.43
2023-05-04T16:24:43.467Z,4.67
2023-05-04T16:27:11.775Z,8.03
2023-05-04T16:29:39.855Z,5.70
2023-05-04T16:32:08.515Z,13.17
2023-05-04T16:34:38.478Z,5.33
2023-05-04T16:37:07.435Z,5.13
2023-05-04T16:39:37.658Z,4.20
2023-05-04T16:42:06.231Z,5.47
2023-05-04T16:44:34.441Z,6.77
2023-05-04T16:47:02.714Z,7.27
2023-05-04T16:49:31.205Z,5.10
2023-05-04T16:52:00.678Z,3.93
2023-05-04T16:54:29.023Z,11.43
2023-05-04T16:56:57.157Z,4.37
2023-05-04T16:59:25.200Z,6.23
2023-05-04T17:01:53.416Z,4.77
2023-05-04T17:04:21.510Z,7.47
2023-05-04T17:06:50.583Z,5.17
2023-05-04T17:09:19.977Z,6.10
2023-05-04T17:11:48.179Z,7.03
2023-05-04T17:14:16.305Z,4.43
2023-05-04T17:16:44.357Z,7.10
2023-05-04T17:19:12.445Z,13.47
2023-05-04T17:21:40.927Z,8.17
2023-05-04T17:24:09.320Z,4.83
2023-05-04T17:26:38.933Z,8.03
2023-05-04T17:29:08.278Z,3.90
2023-05-04T17:31:36.539Z,6.30
2023-05-04T17:34:04.786Z,4.90
2023-05-04T17:36:33.287Z,4.07
2023-05-04T17:39:01.462Z,8.80
2023-05-04T17:41:29.848Z,11.83
2023-05-04T17:43:59.464Z,3.97
2023-05-04T17:46:27.812Z,4.83
2023-05-04T17:48:56.635Z,5.03
2023-05-04T17:51:24.802Z,6.53
2023-05-04T17:53:54.103Z,6.70
2023-05-04T17:56:22.281Z,4.30
2023-05-04T17:58:50.692Z,5.70
2023-05-04T18:01:20.847Z,6.03
2023-05-04T18:03:49.205Z,5.60
2023-05-04T18:06:17.519Z,4.00
2023-05-04T18:08:45.884Z,9.80
2023-05-04T18:11:14.008Z,4.70
2023-05-04T18:13:42.130Z,4.17
2023-05-04T18:16:10.503Z,6.23
2023-05-04T18:18:40.606Z,10.00
2023-05-04T18:21:08.726Z,4.90
2023-05-04T18:23:36.822Z,5.23
2023-05-04T18:26:05.174Z,4.77
2023-05-04T18:28:33.292Z,10.43
2023-05-04T18:31:01.384Z,6.10
2023-05-04T18:33:31.372Z,5.93
2023-05-04T18:36:00.904Z,5.13
2023-05-04T18:38:29.037Z,5.80
2023-05-04T18:40:57.189Z,6.67
2023-05-04T18:43:25.478Z,4.97
2023-05-04T18:45:53.624Z,6.13
2023-05-04T18:48:22.290Z,5.90
2023-05-04T18:50:57.212Z,4.40
2023-05-04T18:53:27.166Z,4.97
2023-05-04T18:56:02.716Z,6.90
2023-05-04T18:58:30.937Z,6.90
2023-05-04T19:00:59.302Z,13.73
2023-05-04T19:03:27.555Z,5.47
2023-05-04T19:05:56.422Z,5.90
2023-05-04T19:08:25.918Z,6.93
2023-05-04T19:10:59.116Z,4.83
2023-05-04T19:13:27.311Z,5.50
2023-05-04T19:15:55.540Z,7.50
2023-05-04T19:18:24.609Z,5.77
2023-05-04T19:20:52.797Z,6.13
2023-05-04T19:23:20.911Z,5.50
2023-05-04T19:25:50.403Z,10.93
2023-05-04T19:28:19.050Z,9.17
2023-05-04T19:30:47.118Z,6.07
2023-05-04T19:33:16.680Z,7.90
2023-05-04T19:35:44.812Z,5.03
2023-05-04T19:38:12.957Z,10.93
2023-05-04T19:40:42.860Z,5.57
2023-05-04T19:43:12.472Z,6.23
2023-05-04T19:45:40.910Z,5.20
2023-05-04T19:48:09.248Z,7.23
2023-05-04T19:50:37.473Z,8.77
2023-05-04T19:53:05.669Z,8.00
2023-05-04T19:55:34.175Z,8.00
2023-05-04T19:58:02.341Z,6.57
2023-05-04T20:00:31.918Z,5.53
2023-05-04T20:03:00.549Z,8.40
2023-05-04T20:05:29.098Z,5.87
2023-05-04T20:07:57.554Z,6.60
2023-05-04T20:10:25.725Z,5.40
2023-05-04T20:12:56.606Z,8.33
2023-05-04T20:15:24.833Z,6.40
2023-05-04T20:17:54.472Z,7.50
2023-05-04T20:20:22.639Z,8.37
2023-05-04T20:22:52.841Z,6.03
2023-05-04T20:25:21.380Z,5.10
2023-05-04T20:27:52.286Z,6.80
2023-05-04T20:30:20.512Z,6.60
2023-05-04T20:32:49.390Z,5.50
2023-05-04T20:35:19.148Z,5.67
2023-05-04T20:37:47.821Z,5.80
2023-05-04T20:40:17.155Z,5.70
2023-05-04T20:42:45.477Z,7.30
2023-05-04T20:45:14.011Z,7.83
2023-05-04T20:47:42.677Z,6.03
2023-05-04T20:50:12.024Z,9.30
2023-05-04T20:52:42.566Z,8.67
2023-05-04T20:55:11.314Z,7.30
2023-05-04T20:57:39.604Z,5.63
2023-05-04T21:00:09.385Z,6.70
2023-05-04T21:02:37.972Z,10.20
2023-05-04T21:05:06.988Z,7.00
2023-05-04T21:07:35.109Z,7.00
2023-05-04T21:10:05.073Z,7.43
2023-05-04T21:12:33.279Z,6.93
2023-05-04T21:15:01.378Z,5.93
2023-05-04T21:17:29.555Z,13.77
2023-05-04T21:19:57.986Z,5.10
2023-05-04T21:22:26.180Z,5.03
2023-05-04T21:24:54.457Z,6.43
2023-05-04T21:27:24.096Z,7.20
2023-05-04T21:29:52.342Z,6.17
2023-05-04T21:32:20.856Z,9.33
2023-05-04T21:34:53.179Z,5.80
2023-05-04T21:37:21.506Z,5.77
2023-05-04T21:39:54.514Z,7.53
2023-05-04T21:42:24.289Z,8.60
2023-05-04T21:44:56.055Z,6.53
2023-05-04T21:47:24.755Z,6.20
2023-05-04T21:49:53.384Z,8.90
2023-05-04T21:52:21.917Z,6.20
2023-05-04T21:54:50.637Z,5.17
2023-05-04T21:57:19.308Z,5.23
2023-05-04T21:59:50.295Z,6.00
2023-05-04T22:02:18.785Z,8.23
2023-05-04T22:04:46.890Z,7.60
2023-05-04T22:07:15.614Z,5.80
2023-05-04T22:09:43.891Z,5.37
2023-05-04T22:12:12.060Z,13.70
2023-05-04T22:14:42.299Z,8.77
2023-05-04T22:17:12.164Z,10.00
2023-05-04T22:19:40.697Z,5.60
2023-05-04T22:22:08.869Z,6.47
2023-05-04T22:24:37.635Z,6.90
2023-05-04T22:27:05.963Z,10.23
2023-05-04T22:29:36.084Z,5.43
2023-05-04T22:32:04.807Z,6.60
2023-05-04T22:34:35.450Z,9.03
2023-05-04T22:37:03.985Z,6.53
2023-05-04T22:39:32.117Z,7.80
2023-05-04T22:42:02.104Z,5.90
2023-05-04T22:44:30.277Z,6.20
2023-05-04T22:46:58.583Z,10.13
2023-05-04T22:49:28.232Z,8.40
2023-05-04T22:51:57.739Z,7.60
2023-05-04T22:54:25.884Z,8.70
2023-05-04T22:56:54.105Z,9.97
2023-05-04T22:59:22.303Z,8.47
2023-05-04T23:01:50.703Z,9.73
2023-05-04T23:04:18.904Z,9.17
2023-05-04T23:06:47.123Z,8.40
2023-05-04T23:09:17.600Z,6.17
2023-05-04T23:11:46.182Z,8.60
2023-05-04T23:14:14.818Z,5.20
2023-05-04T23:16:43.004Z,6.83
2023-05-04T23:19:11.066Z,7.50
2023-05-04T23:21:39.639Z,7.90
2023-05-04T23:24:07.983Z,7.73
2023-05-04T23:26:38.049Z,6.63
2023-05-04T23:29:06.596Z,7.50
2023-05-04T23:31:34.732Z,8.20
2023-05-04T23:34:02.888Z,7.17
2023-05-04T23:36:30.976Z,7.83
2023-05-04T23:38:59.063Z,10.57
2023-05-04T23:41:27.221Z,9.30
2023-05-04T23:43:59.207Z,6.53
2023-05-04T23:46:27.426Z,15.37
2023-05-04T23:48:56.118Z,7.20
2023-05-04T23:51:24.243Z,6.07
2023-05-04T23:53:52.406Z,7.10
2023-05-04T23:56:20.430Z,6.67
2023-05-04T23:58:48.724Z,10.67
